Time;durP1;ratioP1;P1;durP2;ratioP2;P2;SDS_P1;SDS_P2;PMS_P1;PMS_P2;Temp;Humidity;BMP_temperature;BMP_pressure;BME280_temperature;BME280_humidity;BME280_pressure;Samples;Min_cycle;Max_cycle;Signal;HPM_P1;HPM_P2
2021/09/22 00:00:00;;;;;;;11.55;8.10;;;;;;;12.05;71.07;101191.44;5088859;28;20024;-64
2021/09/22 00:02:26;;;;;;;11.82;8.32;;;;;;;12.00;71.49;101185.59;5088688;28;20050;-64
2021/09/22 00:04:51;;;;;;;10.25;7.40;;;;;;;11.93;71.48;101178.16;5088867;28;20036;-64
2021/09/22 00:07:17;;;;;;;10.00;7.63;;;;;;;11.94;71.18;101179.84;5088657;28;20044;-64
2021/09/22 00:09:42;;;;;;;14.00;7.72;;;;;;;11.87;72.14;101167.88;5088422;28;20085;-64
2021/09/22 00:12:08;;;;;;;11.63;7.25;;;;;;;11.90;71.12;101170.31;5089410;28;20058;-65
2021/09/22 00:14:34;;;;;;;10.55;7.43;;;;;;;11.90;71.38;101159.56;5087927;28;20036;-65
2021/09/22 00:16:59;;;;;;;9.70;6.97;;;;;;;11.90;71.28;101162.25;5088822;28;20133;-67
2021/09/22 00:19:25;;;;;;;11.95;7.38;;;;;;;11.82;70.98;101141.34;5088609;28;20391;-67
2021/09/22 00:21:50;;;;;;;10.55;7.00;;;;;;;11.90;71.05;101151.50;5086090;28;20052;-64
2021/09/22 00:24:16;;;;;;;13.52;7.13;;;;;;;11.83;71.68;101151.13;5089897;28;20024;-64
2021/09/22 00:26:41;;;;;;;10.73;6.97;;;;;;;11.78;71.51;101139.03;5092110;28;20043;-64
2021/09/22 00:29:07;;;;;;;10.10;6.80;;;;;;;11.75;71.18;101142.84;5092282;28;20049;-64
2021/09/22 00:31:35;;;;;;;9.27;7.18;;;;;;;11.69;72.51;101137.94;5091838;28;20073;-64
2021/09/22 00:34:02;;;;;;;11.82;7.72;;;;;;;11.67;72.73;101141.72;5092178;28;20810;-64
2021/09/22 00:36:27;;;;;;;12.63;7.95;;;;;;;11.68;72.76;101140.75;5091735;28;20030;-63
2021/09/22 00:38:53;;;;;;;13.77;7.63;;;;;;;11.68;72.56;101143.44;5090741;28;20614;-63
2021/09/22 00:41:18;;;;;;;14.05;7.68;;;;;;;11.65;72.72;101135.63;5091990;28;20430;-63
2021/09/22 00:43:44;;;;;;;8.68;7.22;;;;;;;11.67;72.71;101134.50;5091787;28;20024;-64
2021/09/22 00:46:09;;;;;;;11.77;6.78;;;;;;;11.66;72.79;101131.94;5092071;28;20020;-62
2021/09/22 00:48:35;;;;;;;12.23;6.90;;;;;;;11.62;73.25;101119.72;5091664;28;20024;-65
2021/09/22 00:51:07;;;;;;;12.85;6.93;;;;;;;11.64;73.28;101120.47;5090297;28;20506;-64
2021/09/22 00:53:34;;;;;;;10.25;7.05;;;;;;;11.64;72.80;101113.25;5091708;28;20051;-63
2021/09/22 00:56:03;;;;;;;10.85;7.45;;;;;;;11.64;73.45;101105.19;5092034;28;20115;-63
2021/09/22 00:58:29;;;;;;;10.98;7.40;;;;;;;11.61;73.69;101099.19;5092090;28;20488;-63
2021/09/22 01:00:55;;;;;;;11.57;7.30;;;;;;;11.58;74.15;101106.50;5090851;28;20024;-65
2021/09/22 01:03:21;;;;;;;11.27;7.63;;;;;;;11.54;74.10;101097.00;5092379;28;20031;-64
2021/09/22 01:05:48;;;;;;;8.80;7.05;;;;;;;11.53;75.00;101108.72;5092230;28;20448;-65
2021/09/22 01:08:15;;;;;;;11.30;7.00;;;;;;;11.54;75.00;101101.50;5091980;28;20441;-65
2021/09/22 01:10:40;;;;;;;11.80;7.25;;;;;;;11.59;74.17;101104.69;5091971;28;20044;-64
2021/09/22 01:13:06;;;;;;;8.48;7.05;;;;;;;11.48;74.37;101084.03;5091981;28;20107;-64
2021/09/22 01:15:34;;;;;;;9.45;7.18;;;;;;;11.57;74.39;101101.25;5091737;28;20762;-64
2021/09/22 01:18:00;;;;;;;9.90;7.18;;;;;;;11.61;74.07;101102.75;5091992;28;20148;-64
2021/09/22 01:20:29;;;;;;;8.80;6.78;;;;;;;11.52;74.15;101088.19;5089106;28;20119;-65
2021/09/22 01:23:00;;;;;;;9.68;6.70;;;;;;;11.59;74.09;101099.31;5091808;28;20032;-64
2021/09/22 01:25:26;;;;;;;10.10;7.10;;;;;;;11.55;73.71;101095.16;5090607;28;20050;-62
2021/09/22 01:27:55;;;;;;;10.95;6.53;;;;;;;11.57;74.02;101095.88;5091736;28;20480;-64
2021/09/22 01:30:21;;;;;;;10.98;7.10;;;;;;;11.57;74.62;101081.59;5091720;28;20233;-64
2021/09/22 01:32:51;;;;;;;10.23;6.53;;;;;;;11.57;74.63;101090.50;5091519;28;20195;-64
2021/09/22 01:35:17;;;;;;;8.63;6.30;;;;;;;11.55;74.58;101082.56;5089281;28;20024;-64
2021/09/22 01:37:43;;;;;;;10.65;6.72;;;;;;;11.57;73.84;101070.88;5091452;28;20036;-64
2021/09/22 01:40:08;;;;;;;11.15;6.80;;;;;;;11.59;73.87;101069.75;5091649;28;20153;-63
2021/09/22 01:42:34;;;;;;;11.70;6.75;;;;;;;11.48;74.41;101048.25;5091525;28;20031;-64
2021/09/22 01:45:04;;;;;;;9.07;6.38;;;;;;;11.53;74.23;101060.34;5091346;28;20097;-67
2021/09/22 01:47:30;;;;;;;8.48;6.25;;;;;;;11.49;74.83;101052.66;5089899;28;20052;-67
2021/09/22 01:50:03;;;;;;;11.07;6.80;;;;;;;11.46;74.88;101050.22;5091191;28;20062;-68
2021/09/22 01:52:32;;;;;;;9.10;6.57;;;;;;;11.50;75.35;101063.28;5089976;28;20081;-67
2021/09/22 01:54:57;;;;;;;11.23;6.47;;;;;;;11.44;75.26;101058.41;5091086;28;20032;-67
2021/09/22 01:57:23;;;;;;;9.85;6.78;;;;;;;11.46;75.65;101064.53;5091550;28;20491;-66
2021/09/22 01:59:48;;;;;;;10.55;6.72;;;;;;;11.49;75.52;101061.56;5089761;28;20031;-64
2021/09/22 02:02:14;;;;;;;10.15;6.50;;;;;;;11.54;75.26;101064.75;5090935;28;20040;-64
2021/09/22 02:04:40;;;;;;;9.48;6.82;;;;;;;11.41;76.49;101057.78;5106541;28;20036;-64
2021/09/22 02:07:05;;;;;;;9.90;6.95;;;;;;;11.38;76.40;101058.88;5091099;28;20396;-64
2021/09/22 02:09:31;;;;;;;8.40;6.30;;;;;;;11.38;77.06;101061.56;5090077;28;20656;-64
2021/09/22 02:11:56;;;;;;;9.43;6.53;;;;;;;11.36;77.15;101057.31;5090220;28;20070;-64
2021/09/22 02:14:22;;;;;;;8.75;6.57;;;;;;;11.28;78.00;101057.91;5090354;28;20069;-64
2021/09/22 02:16:47;;;;;;;10.00;6.57;;;;;;;11.35;77.09;101061.81;5089903;28;20028;-64
2021/09/22 02:19:13;;;;;;;8.10;6.43;;;;;;;11.29;77.62;101056.91;5106418;28;20055;-64
2021/09/22 02:21:39;;;;;;;9.10;6.38;;;;;;;11.28;77.92;101048.97;5090607;28;20050;-65
2021/09/22 02:24:05;;;;;;;9.23;6.70;;;;;;;11.28;76.97;101051.66;5090783;28;20055;-64
2021/09/22 02:26:30;;;;;;;11.48;6.65;;;;;;;11.28;77.83;101054.34;5090527;28;20843;-65
2021/09/22 02:28:56;;;;;;;8.35;5.70;;;;;;;11.28;78.51;101048.97;5090621;28;20114;-65
2021/09/22 02:31:21;;;;;;;14.98;7.05;;;;;;;11.28;77.96;101043.63;5090676;28;20112;-64
2021/09/22 02:33:47;;;;;;;10.80;6.13;;;;;;;11.37;77.48;101057.19;5090520;28;20411;-64
2021/09/22 02:36:13;;;;;;;10.48;6.70;;;;;;;11.34;77.97;101052.06;5090657;28;20027;-65
2021/09/22 02:38:38;;;;;;;9.80;6.18;;;;;;;11.33;78.20;101046.81;5090441;28;20036;-63
2021/09/22 02:41:04;;;;;;;9.02;6.53;;;;;;;11.36;77.79;101055.44;5090604;28;20043;-65
2021/09/22 02:43:29;;;;;;;7.75;5.75;;;;;;;11.32;77.84;101047.78;5089079;28;20089;-63
2021/09/22 02:45:55;;;;;;;7.00;5.18;;;;;;;11.34;77.46;101045.81;5090087;28;20057;-64
2021/09/22 02:48:21;;;;;;;10.20;6.22;;;;;;;11.32;78.06;101048.63;5090129;28;20066;-65
2021/09/22 02:50:46;;;;;;;9.45;6.50;;;;;;;11.26;78.34;101033.00;5090215;28;20036;-65
2021/09/22 02:53:12;;;;;;;9.75;6.55;;;;;;;11.40;77.06;101040.81;5089943;28;20043;-63
2021/09/22 02:55:37;;;;;;;8.30;5.85;;;;;;;11.27;77.65;101021.28;5090094;28;20043;-65
2021/09/22 02:58:03;;;;;;;9.27;6.35;;;;;;;11.36;77.26;101033.97;5090283;28;20066;-65
2021/09/22 03:00:28;;;;;;;9.95;6.43;;;;;;;11.32;77.69;101027.13;5089832;28;20032;-64
2021/09/22 03:02:54;;;;;;;11.40;6.13;;;;;;;11.33;77.36;101028.88;5090236;28;20427;-63
2021/09/22 03:05:19;;;;;;;13.88;6.93;;;;;;;11.36;76.88;101027.75;5090200;28;20093;-64
2021/09/22 03:07:45;;;;;;;7.85;5.82;;;;;;;11.37;77.60;101026.78;5105431;28;20016;-64
2021/09/22 03:10:12;;;;;;;7.90;5.70;;;;;;;11.31;77.31;101009.31;5087564;28;20093;-63
2021/09/22 03:12:38;;;;;;;8.65;5.90;;;;;;;11.36;77.09;101028.59;5089246;28;20108;-68
2021/09/22 03:15:04;;;;;;;9.05;5.93;;;;;;;11.24;77.64;101005.44;5089251;28;20122;-67
2021/09/22 03:17:30;;;;;;;10.00;6.35;;;;;;;11.29;77.52;101013.13;5089102;28;20062;-68
2021/09/22 03:19:55;;;;;;;6.93;5.70;;;;;;;11.21;77.89;101004.81;5089410;28;20515;-68
2021/09/22 03:22:21;;;;;;;12.38;6.15;;;;;;;11.20;78.16;101012.03;5089548;28;20353;-66
2021/09/22 03:24:47;;;;;;;8.07;6.13;;;;;;;11.19;78.02;101006.78;5089090;28;20032;-68
2021/09/22 03:27:12;;;;;;;7.88;5.97;;;;;;;11.11;78.71;101002.00;5089352;28;20081;-67
2021/09/22 03:29:38;;;;;;;9.25;6.38;;;;;;;11.08;78.77;100998.69;5088843;28;20563;-66
2021/09/22 03:32:04;;;;;;;10.00;6.22;;;;;;;11.10;78.69;101011.00;5089052;28;20064;-67
2021/09/22 03:34:29;;;;;;;7.82;5.97;;;;;;;11.01;79.48;100989.44;5089042;28;20023;-68
2021/09/22 03:36:55;;;;;;;8.07;5.95;;;;;;;11.03;79.35;101009.78;5089301;28;20040;-67
2021/09/22 03:39:20;;;;;;;8.75;5.78;;;;;;;10.95;79.38;101011.38;5088381;28;20119;-67
2021/09/22 03:41:46;;;;;;;9.85;5.28;;;;;;;10.89;80.17;101001.97;5089640;28;20146;-67
2021/09/22 03:44:12;;;;;;;8.68;5.93;;;;;;;10.85;80.03;101002.34;5089530;28;20111;-67
2021/09/22 03:46:37;;;;;;;9.52;6.57;;;;;;;10.86;80.15;101023.69;5089597;28;20717;-67
2021/09/22 03:49:03;;;;;;;9.75;6.50;;;;;;;10.86;80.30;101015.63;5089651;28;20024;-67
2021/09/22 03:51:28;;;;;;;11.18;6.47;;;;;;;10.80;80.63;101018.78;5089584;28;20024;-67
2021/09/22 03:53:53;;;;;;;11.05;5.97;;;;;;;10.80;81.02;101024.16;5089859;28;20031;-67
2021/09/22 03:56:19;;;;;;;9.63;5.95;;;;;;;10.83;80.72;101023.06;5089798;28;20047;-68
2021/09/22 03:58:45;;;;;;;9.88;6.55;;;;;;;10.74;81.59;101013.06;5089885;28;20032;-67
2021/09/22 04:01:10;;;;;;;8.93;6.68;;;;;;;10.72;81.53;101009.63;5093670;28;20102;-67
2021/09/22 04:03:36;;;;;;;8.50;5.82;;;;;;;10.69;81.57;101013.41;5093464;28;20024;-67
2021/09/22 04:06:01;;;;;;;10.02;6.38;;;;;;;10.66;82.37;101013.66;5093389;28;20024;-67
2021/09/22 04:08:27;;;;;;;9.52;6.00;;;;;;;10.68;82.05;101008.16;5093278;28;20047;-67
2021/09/22 04:10:52;;;;;;;8.60;6.07;;;;;;;10.64;81.92;100998.66;5093204;28;20527;-67
2021/09/22 04:13:18;;;;;;;8.25;6.35;;;;;;;10.63;82.62;101011.19;5093176;28;20027;-68
2021/09/22 04:15:43;;;;;;;9.38;6.00;;;;;;;10.64;82.46;101014.75;5093084;28;20031;-68
2021/09/22 04:18:09;;;;;;;10.77;6.13;;;;;;;10.62;83.16;101014.88;5093327;28;20020;-68
2021/09/22 04:20:34;;;;;;;9.15;5.88;;;;;;;10.59;83.24;101012.41;5093148;28;20024;-67
2021/09/22 04:23:00;;;;;;;8.50;5.90;;;;;;;10.58;83.32;101013.38;5093213;28;20028;-67
2021/09/22 04:25:26;;;;;;;11.40;7.18;;;;;;;10.54;84.08;101008.34;5093239;28;20032;-67
2021/09/22 04:27:51;;;;;;;10.27;6.55;;;;;;;10.51;84.11;101009.44;5092876;28;20039;-65
2021/09/22 04:30:17;;;;;;;8.75;5.85;;;;;;;10.54;84.45;101014.59;5092753;28;20553;-63
2021/09/22 04:32:42;;;;;;;14.82;6.82;;;;;;;10.52;84.35;100987.03;5092705;28;20049;-64
2021/09/22 04:35:08;;;;;;;7.32;5.82;;;;;;;10.58;84.73;101008.00;5092900;28;20030;-64
2021/09/22 04:37:36;;;;;;;10.05;6.53;;;;;;;10.63;84.77;101007.66;5092589;28;20024;-63
2021/09/22 04:40:08;;;;;;;13.95;6.68;;;;;;;10.61;84.86;101001.56;5092753;28;20058;-63
2021/09/22 04:42:34;;;;;;;11.25;6.03;;;;;;;10.64;84.80;101004.03;5092650;28;20028;-64
2021/09/22 04:45:00;;;;;;;9.38;5.90;;;;;;;10.60;84.92;101003.38;5092698;28;20035;-67
2021/09/22 04:47:27;;;;;;;10.65;6.18;;;;;;;10.65;84.89;100997.66;5092994;28;20103;-67
2021/09/22 04:49:54;;;;;;;9.63;6.75;;;;;;;10.64;85.15;100991.44;5092372;28;20032;-67
2021/09/22 04:52:19;;;;;;;13.77;6.43;;;;;;;10.70;84.65;100979.38;5092642;28;20095;-66
2021/09/22 04:54:45;;;;;;;11.45;6.80;;;;;;;10.72;85.17;100985.47;5092439;28;20032;-67
2021/09/22 04:57:10;;;;;;;8.77;6.45;;;;;;;10.71;84.89;100976.56;5091194;28;20023;-68
2021/09/22 04:59:36;;;;;;;8.32;6.22;;;;;;;10.78;84.82;100983.19;5092366;28;20074;-67
2021/09/22 05:02:01;;;;;;;10.00;6.32;;;;;;;10.79;84.96;100995.63;5107555;28;20114;-67
2021/09/22 05:04:27;;;;;;;8.60;6.53;;;;;;;10.89;84.48;100985.00;5091065;28;20032;-67
2021/09/22 05:06:52;;;;;;;9.85;6.55;;;;;;;10.86;84.00;100993.31;5090270;28;20032;-68
2021/09/22 05:09:18;;;;;;;16.45;6.53;;;;;;;10.83;84.09;100983.66;5090471;28;20402;-68
2021/09/22 05:11:43;;;;;;;12.07;7.00;;;;;;;10.94;84.33;100996.25;5090087;28;20085;-66
2021/09/22 05:14:09;;;;;;;14.70;7.90;;;;;;;10.96;83.79;101000.53;5091536;28;20059;-66
2021/09/22 05:16:35;;;;;;;18.35;6.68;;;;;;;10.92;84.15;100996.38;5090649;28;20028;-68
2021/09/22 05:19:00;;;;;;;14.90;7.13;;;;;;;10.96;84.34;100989.78;5091734;28;20101;-68
2021/09/22 05:21:26;;;;;;;9.43;6.50;;;;;;;11.05;83.71;101002.50;5091734;28;20020;-68
2021/09/22 05:23:52;;;;;;;11.93;7.10;;;;;;;11.10;83.00;100994.91;5091485;28;20031;-68
2021/09/22 05:26:17;;;;;;;10.77;6.82;;;;;;;11.17;82.79;100996.16;5091051;28;20043;-66
2021/09/22 05:28:43;;;;;;;10.60;6.68;;;;;;;11.18;82.64;100997.00;5091548;28;20042;-66
2021/09/22 05:31:08;;;;;;;13.80;6.65;;;;;;;11.18;82.94;100995.16;5091568;28;20365;-66
2021/09/22 05:33:34;;;;;;;12.02;7.38;;;;;;;11.24;82.09;100996.50;5091717;28;20020;-65
2021/09/22 05:35:59;;;;;;;15.10;7.00;;;;;;;11.33;81.26;100996.66;5091940;28;20520;-65
2021/09/22 05:38:25;;;;;;;9.85;7.18;;;;;;;11.36;81.61;101001.75;5091653;28;20030;-64
2021/09/22 05:40:50;;;;;;;12.07;7.65;;;;;;;11.36;81.45;100992.84;5088893;28;20114;-64
2021/09/22 05:43:16;;;;;;;14.13;7.43;;;;;;;11.47;81.33;100999.06;5091758;28;20107;-65
2021/09/22 05:45:41;;;;;;;13.57;7.32;;;;;;;11.52;81.11;101006.75;5091389;28;20035;-64
2021/09/22 05:48:07;;;;;;;13.10;8.35;;;;;;;11.50;81.13;100988.06;5091402;28;20035;-64
2021/09/22 05:50:32;;;;;;;14.20;7.40;;;;;;;11.58;81.20;100982.91;5091195;28;20038;-63
2021/09/22 05:52:58;;;;;;;13.27;7.43;;;;;;;11.68;81.52;101001.88;5090173;28;20107;-64
2021/09/22 05:55:23;;;;;;;10.05;7.13;;;;;;;11.72;81.91;100994.41;5091562;28;20073;-64
2021/09/22 05:57:49;;;;;;;10.65;8.02;;;;;;;11.77;81.79;100995.72;5091299;28;20416;-63
2021/09/22 06:00:15;;;;;;;16.63;8.25;;;;;;;11.80;81.21;100998.16;5091077;28;20036;-62
2021/09/22 06:02:41;;;;;;;17.00;9.02;;;;;;;11.89;81.61;100996.56;5091232;28;20023;-64
2021/09/22 06:05:07;;;;;;;17.90;9.32;;;;;;;11.89;81.63;100996.56;5091101;28;20039;-63
2021/09/22 06:07:32;;;;;;;13.18;9.32;;;;;;;11.91;82.11;100999.97;5091032;28;20044;-64
2021/09/22 06:09:58;;;;;;;12.20;8.52;;;;;;;11.94;82.60;100995.22;5082051;28;20044;-64
2021/09/22 06:12:24;;;;;;;14.73;9.35;;;;;;;11.96;82.19;101011.22;5086988;28;20032;-64
2021/09/22 06:14:50;;;;;;;21.33;9.82;;;;;;;11.95;82.70;100994.22;5090070;28;20376;-64
2021/09/22 06:17:15;;;;;;;13.65;9.60;;;;;;;12.01;82.46;101001.78;5089909;28;20460;-64
2021/09/22 06:19:42;;;;;;;36.22;10.70;;;;;;;12.02;83.40;101010.72;5087632;28;20031;-63
2021/09/22 06:22:07;;;;;;;19.38;10.20;;;;;;;12.10;82.85;101014.47;5087039;28;20349;-64
2021/09/22 06:24:33;;;;;;;14.10;9.00;;;;;;;12.10;83.07;101019.00;5089383;28;20089;-65
2021/09/22 06:26:58;;;;;;;12.15;8.70;;;;;;;12.07;84.40;101017.41;5089843;28;20403;-65
2021/09/22 06:29:24;;;;;;;13.40;9.05;;;;;;;12.05;84.53;101011.31;5089402;28;20093;-65
2021/09/22 06:31:49;;;;;;;11.57;9.18;;;;;;;12.04;85.62;101017.66;5087500;28;20546;-65
2021/09/22 06:34:15;;;;;;;21.73;9.70;;;;;;;12.05;86.49;101015.81;5089068;28;20036;-67
2021/09/22 06:36:40;;;;;;;12.43;8.95;;;;;;;12.08;86.17;101013.75;5089998;28;20016;-68
2021/09/22 06:39:06;;;;;;;13.90;9.45;;;;;;;12.02;85.61;101008.03;5088473;28;20024;-67
2021/09/22 06:41:33;;;;;;;26.15;9.95;;;;;;;11.97;86.96;101000.34;5090168;28;20055;-65
2021/09/22 06:43:59;;;;;;;19.33;8.98;;;;;;;12.03;86.71;101009.72;5090117;28;20024;-65
2021/09/22 06:46:25;;;;;;;17.42;9.77;;;;;;;12.04;87.33;101019.50;5089808;28;20099;-65
2021/09/22 06:48:50;;;;;;;14.95;9.45;;;;;;;12.01;87.69;101012.53;5090231;28;20056;-65
2021/09/22 06:51:18;;;;;;;13.45;9.20;;;;;;;11.98;89.00;101015.47;5090314;28;20032;-64
2021/09/22 06:53:45;;;;;;;15.48;10.02;;;;;;;12.03;88.78;101020.47;5090123;28;20028;-65
2021/09/22 06:56:10;;;;;;;19.80;10.35;;;;;;;11.90;89.93;101012.56;5090282;28;20055;-65
2021/09/22 06:58:36;;;;;;;16.48;10.75;;;;;;;11.98;90.54;101020.00;5090210;28;20028;-64
2021/09/22 07:01:02;;;;;;;13.88;9.95;;;;;;;11.93;91.15;101028.44;5090501;28;20024;-65
2021/09/22 07:03:28;;;;;;;14.90;10.25;;;;;;;11.95;90.95;101033.69;5090109;28;20606;-66
2021/09/22 07:05:53;;;;;;;13.02;10.13;;;;;;;11.91;91.63;101022.34;5088908;28;20100;-66
2021/09/22 07:08:19;;;;;;;15.75;11.15;;;;;;;11.89;92.37;101023.44;5090013;28;20039;-65
2021/09/22 07:10:45;;;;;;;14.73;10.88;;;;;;;11.89;92.69;101026.13;5088709;28;20059;-65
2021/09/22 07:13:11;;;;;;;13.65;11.10;;;;;;;11.89;93.06;101026.97;5089536;28;20078;-68
2021/09/22 07:15:36;;;;;;;15.68;11.10;;;;;;;11.90;93.08;101023.31;5083947;28;20140;-64
2021/09/22 07:18:03;;;;;;;16.33;11.60;;;;;;;11.89;93.20;101023.44;5088988;28;20028;-63
2021/09/22 07:20:29;;;;;;;18.08;11.60;;;;;;;11.85;93.57;101025.53;5089217;28;20020;-64
2021/09/22 07:22:54;;;;;;;15.27;12.02;;;;;;;11.85;94.39;101030.91;5087822;28;20092;-64
2021/09/22 07:25:20;;;;;;;15.52;11.73;;;;;;;11.81;94.58;101017.84;5088509;28;20028;-64
2021/09/22 07:27:45;;;;;;;16.38;11.80;;;;;;;11.88;94.76;101029.78;5089329;28;20039;-64
2021/09/22 07:30:14;;;;;;;18.27;12.27;;;;;;;11.90;94.42;101033.22;5089405;28;20477;-63
2021/09/22 07:32:45;;;;;;;17.70;11.98;;;;;;;11.95;93.81;101025.63;5089972;28;20498;-64
2021/09/22 07:35:12;;;;;;;17.90;11.98;;;;;;;11.90;94.87;101026.00;5092536;28;20043;-64
2021/09/22 07:37:38;;;;;;;17.33;11.45;;;;;;;11.98;94.44;101037.00;5093722;28;20024;-62
2021/09/22 07:40:05;;;;;;;14.45;11.13;;;;;;;11.94;95.10;101029.31;5093923;28;20514;-64
2021/09/22 07:42:31;;;;;;;17.50;11.35;;;;;;;11.88;95.22;101030.66;5093892;28;20032;-64
2021/09/22 07:44:56;;;;;;;18.15;11.82;;;;;;;11.79;95.58;101025.16;5093657;28;20024;-64
2021/09/22 07:47:22;;;;;;;24.00;12.20;;;;;;;11.86;96.01;101039.84;5093733;28;20028;-64
2021/09/22 07:49:48;;;;;;;16.85;11.13;;;;;;;11.81;95.70;101036.66;5093362;28;20072;-64
2021/09/22 07:52:14;;;;;;;15.73;11.02;;;;;;;11.88;95.40;101044.09;5093649;28;20103;-64
2021/09/22 07:54:41;;;;;;;15.30;10.70;;;;;;;11.92;95.06;101045.56;5093455;28;20031;-63
2021/09/22 07:57:07;;;;;;;17.27;11.27;;;;;;;12.01;94.63;101038.56;5093490;28;20032;-64
2021/09/22 07:59:33;;;;;;;14.00;11.27;;;;;;;11.99;95.11;101037.84;5093531;28;20493;-63
2021/09/22 08:01:58;;;;;;;13.73;11.55;;;;;;;11.95;95.21;101045.31;5092065;28;20032;-65
2021/09/22 08:04:25;;;;;;;17.08;11.98;;;;;;;11.85;96.06;101043.47;5093399;28;20035;-63
2021/09/22 08:06:51;;;;;;;18.92;11.95;;;;;;;11.90;96.51;101049.34;5108910;28;20040;-64
2021/09/22 08:09:17;;;;;;;22.23;11.88;;;;;;;11.87;96.37;101044.22;5093192;28;20043;-64
2021/09/22 08:11:44;;;;;;;15.27;11.57;;;;;;;11.86;97.73;101047.91;5093061;28;20063;-64
2021/09/22 08:14:09;;;;;;;18.17;12.00;;;;;;;11.81;98.54;101033.97;5093102;28;20028;-66
2021/09/22 08:16:35;;;;;;;17.48;11.90;;;;;;;11.90;97.48;101039.44;5091719;28;20031;-68
2021/09/22 08:19:00;;;;;;;18.48;11.90;;;;;;;11.97;97.47;101045.19;5093041;28;20127;-68
2021/09/22 08:21:25;;;;;;;15.35;11.80;;;;;;;11.93;97.57;101038.34;5093115;28;20492;-67
2021/09/22 08:23:51;;;;;;;15.77;11.23;;;;;;;11.93;97.31;101038.34;5092793;28;20032;-65
2021/09/22 08:26:17;;;;;;;17.00;11.90;;;;;;;11.91;98.24;101019.66;5092750;28;20039;-64
2021/09/22 08:28:42;;;;;;;16.80;12.82;;;;;;;11.98;97.38;101028.06;5092780;28;20072;-64
2021/09/22 08:31:08;;;;;;;20.08;12.52;;;;;;;11.95;98.25;101021.09;5092678;28;20030;-63
2021/09/22 08:33:33;;;;;;;17.25;12.20;;;;;;;11.97;98.84;101023.66;5092536;28;20506;-63
2021/09/22 08:35:59;;;;;;;17.02;12.40;;;;;;;11.91;98.72;101016.09;5092701;28;20039;-65
2021/09/22 08:38:24;;;;;;;19.20;13.02;;;;;;;11.85;99.20;101011.22;5108288;28;20027;-64
2021/09/22 08:40:52;;;;;;;17.70;13.07;;;;;;;11.89;99.48;101016.22;5092399;28;20047;-64
2021/09/22 08:43:22;;;;;;;16.33;12.35;;;;;;;11.93;99.19;101016.84;5092483;28;20070;-64
2021/09/22 08:45:47;;;;;;;17.63;12.35;;;;;;;11.93;99.35;101011.47;5090024;28;20450;-64
2021/09/22 08:48:13;;;;;;;16.95;13.35;;;;;;;11.95;99.45;101015.72;5092611;28;20119;-65
2021/09/22 08:50:39;;;;;;;19.98;13.40;;;;;;;11.92;99.53;101017.81;5108102;28;20020;-64
2021/09/22 08:53:05;;;;;;;20.02;13.48;;;;;;;11.91;100.00;101014.28;5092471;28;20047;-64
2021/09/22 08:55:30;;;;;;;17.45;13.23;;;;;;;12.00;99.53;101012.66;5092304;28;20035;-64
2021/09/22 08:57:56;;;;;;;18.73;13.68;;;;;;;12.02;99.25;100999.97;5092486;28;20081;-64
2021/09/22 09:00:21;;;;;;;19.17;14.18;;;;;;;11.91;100.00;100987.41;5092197;28;20032;-65
2021/09/22 09:02:47;;;;;;;19.75;14.25;;;;;;;12.05;99.27;101013.13;5091955;28;20062;-64
2021/09/22 09:05:16;;;;;;;20.00;13.60;;;;;;;12.01;98.18;101007.16;5092202;28;20032;-64
2021/09/22 09:07:52;;;;;;;20.52;13.85;;;;;;;11.97;99.14;100994.97;5090729;28;20028;-62
2021/09/22 09:10:22;;;;;;;19.77;14.15;;;;;;;12.03;99.42;100990.91;5091875;28;20048;-65
2021/09/22 09:13:17;;;;;;;18.58;13.82;;;;;;;12.06;100.00;101001.41;5091851;28;20044;-64
2021/09/22 09:15:47;;;;;;;17.10;13.73;;;;;;;12.10;100.00;100989.41;5090868;28;20571;-65
2021/09/22 09:18:26;;;;;;;21.38;15.40;;;;;;;12.26;99.95;100987.16;5091773;28;20028;-64
2021/09/22 09:20:54;;;;;;;21.42;14.80;;;;;;;12.27;100.00;100980.78;5090513;28;20062;-66
2021/09/22 09:23:22;;;;;;;23.38;14.52;;;;;;;12.35;98.97;100987.22;5091984;28;20020;-65
2021/09/22 09:26:03;;;;;;;21.45;15.27;;;;;;;12.36;99.64;100980.00;5091606;28;20484;-69
2021/09/22 09:28:35;;;;;;;22.00;15.57;;;;;;;12.42;100.00;100980.34;5090508;28;20024;-68
2021/09/22 09:31:05;;;;;;;21.80;14.45;;;;;;;12.51;99.43;100981.41;5091727;28;20016;-68
2021/09/22 09:33:40;;;;;;;19.35;15.10;;;;;;;12.57;98.32;100979.03;5090144;28;20032;-67
2021/09/22 09:36:12;;;;;;;19.13;14.23;;;;;;;12.48;99.30;100960.97;5091517;28;20032;-67
2021/09/22 09:38:38;;;;;;;20.98;14.73;;;;;;;12.60;98.96;100972.50;5091439;28;20480;-68
2021/09/22 09:41:03;;;;;;;19.20;14.45;;;;;;;12.75;97.83;100974.75;5091500;28;20027;-66
2021/09/22 09:43:29;;;;;;;17.85;14.82;;;;;;;12.66;98.21;100964.78;5091338;28;20023;-68
2021/09/22 09:45:54;;;;;;;17.98;14.57;;;;;;;12.64;98.44;100965.91;5107018;28;20066;-67
2021/09/22 09:48:22;;;;;;;22.33;16.20;;;;;;;12.69;99.50;100975.28;5091280;28;20028;-67
2021/09/22 09:50:52;;;;;;;23.23;16.52;;;;;;;12.75;100.00;100976.59;5090940;28;20388;-67
2021/09/22 09:53:31;;;;;;;17.90;14.90;;;;;;;12.87;100.00;100978.22;5091513;28;20036;-67
2021/09/22 09:56:00;;;;;;;25.40;15.52;;;;;;;12.89;99.68;100974.41;5091269;28;20122;-68
2021/09/22 09:58:41;;;;;;;20.02;15.25;;;;;;;12.90;99.26;100972.59;5091394;28;20405;-68
2021/09/22 10:01:07;;;;;;;17.85;14.40;;;;;;;12.92;98.82;100970.59;5089644;28;20115;-68
2021/09/22 10:03:33;;;;;;;22.70;15.20;;;;;;;12.95;99.09;100975.72;5090952;28;20110;-67
2021/09/22 10:05:58;;;;;;;18.88;14.95;;;;;;;12.99;98.91;100969.09;5106768;28;20418;-67
2021/09/22 10:08:26;;;;;;;20.02;15.88;;;;;;;13.05;99.03;100960.47;5091191;28;20365;-67
2021/09/22 10:10:54;;;;;;;17.27;13.82;;;;;;;13.17;97.98;100960.28;5090718;28;20068;-67
2021/09/22 10:13:20;;;;;;;19.95;14.65;;;;;;;13.25;97.61;100967.66;5090867;28;20409;-67
2021/09/22 10:15:47;;;;;;;19.23;14.10;;;;;;;13.26;97.66;100964.00;5090767;28;20057;-67
2021/09/22 10:18:13;;;;;;;23.65;13.68;;;;;;;13.16;98.28;100952.34;5089578;28;20036;-68
2021/09/22 10:20:40;;;;;;;17.67;14.00;;;;;;;13.30;97.87;100955.50;5090766;28;20433;-67
2021/09/22 10:23:07;;;;;;;17.35;13.95;;;;;;;13.24;98.08;100965.97;5090877;28;20016;-67
2021/09/22 10:25:33;;;;;;;16.05;12.73;;;;;;;13.20;99.01;100948.38;5090647;28;20035;-67
2021/09/22 10:27:59;;;;;;;17.33;13.05;;;;;;;13.25;98.64;100952.34;5089438;28;20027;-68
2021/09/22 10:30:37;;;;;;;17.52;13.75;;;;;;;13.37;97.68;100953.97;5090452;28;20028;-68
2021/09/22 10:33:04;;;;;;;14.45;12.75;;;;;;;13.36;97.24;100949.56;5090724;28;20035;-67
2021/09/22 10:35:39;;;;;;;15.27;12.68;;;;;;;13.33;97.69;100951.69;5090602;28;20028;-67
2021/09/22 10:38:19;;;;;;;13.57;12.15;;;;;;;13.36;98.74;100941.50;5089378;28;20032;-65
2021/09/22 10:41:02;;;;;;;16.05;12.38;;;;;;;13.46;99.54;100939.69;5088915;28;20062;-64
2021/09/22 10:43:37;;;;;;;14.77;11.52;;;;;;;13.47;99.61;100943.19;5090458;28;20048;-64
2021/09/22 10:46:05;;;;;;;13.63;11.57;;;;;;;13.52;99.07;100941.78;5090369;28;20536;-65
2021/09/22 10:48:33;;;;;;;16.58;11.27;;;;;;;13.59;98.98;100940.28;5090275;28;20028;-64
2021/09/22 10:51:04;;;;;;;16.45;13.43;;;;;;;13.64;98.83;100938.00;5090085;28;20747;-64
2021/09/22 10:53:38;;;;;;;18.83;12.57;;;;;;;13.70;98.34;100937.44;5088845;28;20050;-64
2021/09/22 10:56:11;;;;;;;16.92;12.00;;;;;;;13.73;96.80;100936.31;5090139;28;20049;-65
2021/09/22 10:58:53;;;;;;;13.43;10.75;;;;;;;13.78;95.51;100928.66;5090183;28;20039;-65
2021/09/22 11:01:31;;;;;;;13.45;11.65;;;;;;;13.75;95.45;100926.25;5090107;28;20020;-64
2021/09/22 11:04:04;;;;;;;13.60;11.07;;;;;;;13.82;95.23;100918.44;5089874;28;20364;-67
2021/09/22 11:09:13;;;;;;;13.18;10.75;;;;;;;13.81;94.88;100917.59;5089643;28;20040;-67
2021/09/22 11:14:33;;;;;;;12.23;10.93;;;;;;;13.83;95.41;100912.91;5049723;28;20028;-68
2021/09/22 11:17:07;;;;;;;13.70;11.43;;;;;;;13.88;95.19;100921.44;5049821;28;20029;-69
2021/09/22 11:19:33;;;;;;;13.27;10.95;;;;;;;13.89;94.22;100908.81;5049529;28;20024;-68